createdAt,value
2019-04-21T00:02:25.531Z,60.40
2019-04-21T00:04:57.947Z,60.50
2019-04-21T00:07:40.329Z,60.70
2019-04-21T00:10:12.528Z,60.50
2019-04-21T00:12:40.492Z,60.80
2019-04-21T00:15:02.123Z,60.70
2019-04-21T00:17:27.061Z,60.40
2019-04-21T00:20:09.136Z,60.70
2019-04-21T00:22:42.140Z,60.70
2019-04-21T00:25:20.997Z,61.00
2019-04-21T00:27:47.041Z,61.10
2019-04-21T00:30:30.724Z,61.10
2019-04-21T00:32:51.580Z,61.10
2019-04-21T00:35:14.148Z,61.10
2019-04-21T00:38:00.553Z,61.30
2019-04-21T00:40:29.055Z,61.60
2019-04-21T00:43:03.640Z,61.30
2019-04-21T00:45:31.398Z,61.80
2019-04-21T00:48:11.418Z,61.90
2019-04-21T00:51:06.653Z,62.40
2019-04-21T00:53:25.845Z,62.30
2019-04-21T00:55:59.411Z,62.50
2019-04-21T00:58:29.987Z,62.40
2019-04-21T01:00:57.030Z,62.60
2019-04-21T01:03:34.875Z,62.50
2019-04-21T01:06:03.225Z,62.60
2019-04-21T01:08:31.286Z,62.90
2019-04-21T01:11:02.173Z,63.00
2019-04-21T01:13:44.072Z,63.00
2019-04-21T01:16:14.285Z,63.20
2019-04-21T01:18:45.884Z,63.10
2019-04-21T01:20:52.751Z,63.40
2019-04-21T01:23:23.425Z,63.20
2019-04-21T01:26:09.221Z,63.20
2019-04-21T01:28:39.919Z,63.10
2019-04-21T01:31:15.002Z,63.20
2019-04-21T01:33:50.557Z,63.50
2019-04-21T01:36:18.137Z,63.80
2019-04-21T01:38:59.257Z,63.90
2019-04-21T01:41:29.328Z,64.00
2019-04-21T01:43:57.247Z,64.20
2019-04-21T01:46:25.670Z,64.50
2019-04-21T01:48:52.500Z,64.80
2019-04-21T01:51:32.088Z,64.90
2019-04-21T01:54:09.244Z,65.20
2019-04-21T01:56:52.349Z,65.30
2019-04-21T01:59:13.543Z,65.10
2019-04-21T02:02:01.722Z,64.70
2019-04-21T02:04:36.405Z,65.50
2019-04-21T02:07:07.195Z,65.90
2019-04-21T02:09:38.072Z,65.60
2019-04-21T02:12:09.755Z,65.40
2019-04-21T02:14:46.278Z,65.20
2019-04-21T02:17:14.782Z,65.90
2019-04-21T02:19:37.839Z,66.00
2019-04-21T02:22:24.645Z,65.50
2019-04-21T02:27:20.284Z,66.30
2019-04-21T02:29:58.487Z,66.10
2019-04-21T02:32:39.408Z,66.10
2019-04-21T02:40:11.525Z,66.10
2019-04-21T02:45:08.219Z,66.80
2019-04-21T02:47:45.828Z,66.90
2019-04-21T02:50:19.174Z,66.90
2019-04-21T02:52:45.635Z,67.40
2019-04-21T02:55:17.781Z,67.20
2019-04-21T02:57:51.875Z,67.30
2019-04-21T03:00:32.232Z,67.30
2019-04-21T03:03:05.699Z,67.30
2019-04-21T03:08:15.174Z,67.80
2019-04-21T03:13:21.799Z,67.70
2019-04-21T03:18:26.406Z,68.50
2019-04-21T03:21:00.599Z,68.20
2019-04-21T03:23:42.789Z,67.90
2019-04-21T03:26:05.029Z,67.80
2019-04-21T03:28:32.351Z,68.30
2019-04-21T03:31:19.600Z,68.40
2019-04-21T03:36:37.280Z,68.30
2019-04-21T03:38:37.522Z,68.60
2019-04-21T03:41:04.202Z,68.50
2019-04-21T03:43:36.198Z,69.30
2019-04-21T03:46:08.543Z,69.40
2019-04-21T03:48:41.106Z,69.70
2019-04-21T03:51:15.903Z,69.70
2019-04-21T03:53:40.349Z,70.20
2019-04-21T03:56:25.416Z,70.40
2019-04-21T03:58:56.232Z,70.20
2019-04-21T04:01:19.755Z,70.50
2019-04-21T04:04:22.587Z,70.70
2019-04-21T04:09:25.724Z,71.20
2019-04-21T04:14:26.821Z,71.40
2019-04-21T04:19:36.202Z,71.80
2019-04-21T04:22:04.320Z,71.80
2019-04-21T04:24:34.034Z,72.00
2019-04-21T04:27:11.109Z,72.60
2019-04-21T04:32:00.794Z,72.90
2019-04-21T04:34:45.322Z,72.80
2019-04-21T04:37:12.777Z,72.90
2019-04-21T04:42:21.769Z,73.30
2019-04-21T04:47:20.479Z,73.90
2019-04-21T04:57:46.974Z,74.30
2019-04-21T05:00:01.231Z,74.10
2019-04-21T05:05:04.888Z,74.20
2019-04-21T05:07:34.159Z,74.60
2019-04-21T05:10:00.013Z,74.30
2019-04-21T05:12:30.977Z,74.60
2019-04-21T05:22:49.646Z,74.20
2019-04-21T05:25:01.725Z,74.10
2019-04-21T05:27:34.630Z,74.30
2019-04-21T05:30:17.410Z,74.40
2019-04-21T05:32:48.852Z,74.00
2019-04-21T05:35:22.853Z,74.00
2019-04-21T05:38:01.343Z,73.60
2019-04-21T05:40:26.388Z,73.50
2019-04-21T05:43:04.413Z,74.30
2019-04-21T05:45:51.986Z,73.90
2019-04-21T05:48:19.465Z,74.10
2019-04-21T05:50:38.045Z,72.70
2019-04-21T05:53:24.112Z,72.40
2019-04-21T05:55:51.762Z,72.50
2019-04-21T05:58:12.078Z,72.50
2019-04-21T06:03:36.828Z,72.90
2019-04-21T06:06:10.084Z,72.30
2019-04-21T06:08:38.981Z,72.60
2019-04-21T06:11:10.332Z,72.60
2019-04-21T06:13:46.412Z,72.20
2019-04-21T06:16:07.522Z,72.80
2019-04-21T06:21:13.080Z,72.10
2019-04-21T06:23:41.994Z,72.90
2019-04-21T06:26:44.790Z,73.60
2019-04-21T06:28:51.851Z,74.60
2019-04-21T06:33:50.465Z,73.70
2019-04-21T06:36:51.939Z,73.50
2019-04-21T06:39:11.619Z,73.40
2019-04-21T06:41:34.249Z,73.50
2019-04-21T06:49:27.849Z,74.20
2019-04-21T06:51:57.934Z,74.80
2019-04-21T06:54:30.502Z,74.60
2019-04-21T06:59:19.214Z,74.10
2019-04-21T07:01:55.276Z,74.60
2019-04-21T07:09:27.202Z,78.90
2019-04-21T07:11:53.908Z,75.20
2019-04-21T07:19:34.950Z,72.80
2019-04-21T07:21:55.587Z,73.10
2019-04-21T07:24:31.970Z,73.10
2019-04-21T07:27:02.411Z,73.90
2019-04-21T07:29:41.335Z,73.70
2019-04-21T07:32:20.634Z,73.20
2019-04-21T07:34:37.980Z,73.80
2019-04-21T07:37:05.772Z,72.70
2019-04-21T07:39:40.222Z,72.90
2019-04-21T07:42:09.466Z,73.10
2019-04-21T07:44:34.988Z,73.10
2019-04-21T07:47:15.756Z,72.30
2019-04-21T07:49:53.116Z,72.70
2019-04-21T07:52:39.448Z,72.20
2019-04-21T07:57:35.446Z,72.00
2019-04-21T08:02:40.734Z,71.20
2019-04-21T08:05:13.059Z,71.50
2019-04-21T08:07:52.049Z,74.00
2019-04-21T08:10:11.642Z,72.50
2019-04-21T08:12:41.917Z,70.50
2019-04-21T08:15:19.515Z,68.50
2019-04-21T08:17:46.951Z,69.10
2019-04-21T08:20:23.080Z,67.50
2019-04-21T08:22:51.620Z,68.30
2019-04-21T08:25:27.269Z,68.80
2019-04-21T08:30:32.210Z,68.40
2019-04-21T08:33:09.521Z,66.10
2019-04-21T08:35:55.355Z,66.70
2019-04-21T08:38:02.194Z,67.00
2019-04-21T08:40:36.736Z,66.20
2019-04-21T08:43:19.064Z,67.40
2019-04-21T08:45:44.568Z,66.10
2019-04-21T08:48:12.191Z,65.00
2019-04-21T08:50:43.326Z,66.60
2019-04-21T08:53:13.951Z,66.60
2019-04-21T08:58:54.593Z,65.70
2019-04-21T09:01:38.245Z,66.10
2019-04-21T09:04:11.104Z,65.10
2019-04-21T09:09:10.877Z,67.00
2019-04-21T09:11:34.824Z,66.20
2019-04-21T09:14:13.179Z,63.80
2019-04-21T09:16:39.698Z,63.10
2019-04-21T09:19:11.794Z,63.90
2019-04-21T09:24:16.083Z,64.10
2019-04-21T09:26:46.511Z,64.50
2019-04-21T09:29:10.841Z,65.00
2019-04-21T09:31:38.009Z,63.70
2019-04-21T09:34:07.035Z,64.00
2019-04-21T09:36:43.147Z,61.60
2019-04-21T09:39:17.914Z,61.80
2019-04-21T09:41:44.941Z,60.40
2019-04-21T09:44:23.171Z,59.60
2019-04-21T09:46:50.606Z,60.40
2019-04-21T09:49:22.541Z,59.30
2019-04-21T09:51:50.534Z,59.60
2019-04-21T09:54:24.948Z,59.80
2019-04-21T09:56:58.601Z,58.60
2019-04-21T09:59:31.341Z,58.50
2019-04-21T10:02:06.394Z,61.40
2019-04-21T10:04:26.843Z,61.40
2019-04-21T10:06:56.720Z,60.70
2019-04-21T10:09:26.567Z,60.50
2019-04-21T10:11:57.002Z,61.20
2019-04-21T10:14:27.014Z,59.60
2019-04-21T10:17:15.090Z,59.80
2019-04-21T10:19:46.259Z,59.70
2019-04-21T10:22:17.028Z,59.80
2019-04-21T10:24:47.065Z,58.70
2019-04-21T10:27:17.195Z,59.40
2019-04-21T10:29:48.579Z,58.80
2019-04-21T10:32:21.597Z,59.20
2019-04-21T10:34:50.007Z,57.90
2019-04-21T10:37:20.865Z,58.10
2019-04-21T10:39:51.569Z,57.70
2019-04-21T10:42:21.516Z,58.50
2019-04-21T10:44:52.696Z,57.50
2019-04-21T10:47:23.073Z,58.10
2019-04-21T10:49:53.055Z,57.00
2019-04-21T10:52:40.676Z,57.90
2019-04-21T10:55:26.325Z,57.90
2019-04-21T10:57:44.384Z,58.00
2019-04-21T11:00:16.039Z,58.20
2019-04-21T11:02:48.839Z,58.20
2019-04-21T11:05:18.866Z,57.00
2019-04-21T11:08:01.400Z,56.80
2019-04-21T11:10:22.274Z,57.50
2019-04-21T11:12:52.660Z,57.70
2019-04-21T11:15:25.163Z,57.60
2019-04-21T11:17:55.704Z,58.40
2019-04-21T11:20:26.835Z,56.00
2019-04-21T11:22:57.617Z,56.10
2019-04-21T11:25:28.228Z,55.20
2019-04-21T11:27:58.683Z,55.50
2019-04-21T11:30:29.761Z,55.70
2019-04-21T11:32:59.710Z,55.90
2019-04-21T11:35:30.901Z,52.60
2019-04-21T11:38:13.547Z,52.90
2019-04-21T11:40:38.229Z,53.10
2019-04-21T11:43:09.577Z,52.50
2019-04-21T11:45:42.079Z,51.50
2019-04-21T11:48:14.436Z,50.90
2019-04-21T11:50:44.184Z,53.40
2019-04-21T11:53:14.825Z,58.10
2019-04-21T11:55:47.019Z,51.70
2019-04-21T11:58:18.091Z,50.40
2019-04-21T12:00:52.071Z,49.50
2019-04-21T12:03:22.201Z,48.70
2019-04-21T12:05:53.121Z,46.60
2019-04-21T12:08:31.114Z,47.90
2019-04-21T12:10:55.504Z,47.80
2019-04-21T12:13:25.375Z,48.70
2019-04-21T12:15:57.031Z,47.80
2019-04-21T12:18:29.920Z,47.20
2019-04-21T12:20:58.869Z,47.20
2019-04-21T12:23:30.211Z,47.60
2019-04-21T12:26:01.207Z,48.00
2019-04-21T12:28:32.415Z,47.40
2019-04-21T12:31:03.328Z,45.50
2019-04-21T12:33:45.748Z,46.20
2019-04-21T12:36:16.003Z,46.80
2019-04-21T12:38:50.964Z,45.60
2019-04-21T12:41:18.372Z,43.90
2019-04-21T12:43:48.687Z,44.30
2019-04-21T12:46:18.569Z,45.00
2019-04-21T12:48:49.613Z,45.70
2019-04-21T12:51:19.800Z,46.40
2019-04-21T12:53:49.891Z,46.10
2019-04-21T12:56:19.814Z,46.90
2019-04-21T12:58:51.239Z,45.40
2019-04-21T13:01:23.050Z,46.80
2019-04-21T13:03:52.897Z,45.80
2019-04-21T13:06:23.476Z,45.60
2019-04-21T13:08:59.438Z,44.50
2019-04-21T13:11:25.510Z,44.50
2019-04-21T13:13:55.705Z,45.20
2019-04-21T13:16:41.304Z,45.20
2019-04-21T13:19:11.570Z,47.00
2019-04-21T13:21:42.342Z,47.20
2019-04-21T13:24:13.735Z,47.20
2019-04-21T13:26:50.455Z,47.20
2019-04-21T13:29:16.413Z,45.90
2019-04-21T13:31:46.352Z,45.00
2019-04-21T13:34:16.028Z,44.90
2019-04-21T13:36:45.767Z,44.20
2019-04-21T13:39:50.778Z,43.90
2019-04-21T13:42:10.988Z,44.50
2019-04-21T13:44:33.035Z,44.40
2019-04-21T13:47:03.054Z,44.90
2019-04-21T13:49:32.835Z,45.60
2019-04-21T13:52:02.720Z,45.10
2019-04-21T13:54:33.764Z,45.90
2019-04-21T13:57:04.893Z,45.90
2019-04-21T13:59:36.205Z,46.40
2019-04-21T14:02:06.902Z,45.60
2019-04-21T14:04:37.841Z,45.90
2019-04-21T14:07:08.182Z,46.30
2019-04-21T14:09:47.631Z,46.10
2019-04-21T14:12:09.786Z,46.50
2019-04-21T14:14:39.611Z,47.10
2019-04-21T14:17:10.748Z,46.50
2019-04-21T14:19:41.550Z,46.70
2019-04-21T14:22:13.897Z,46.00
2019-04-21T14:24:44.007Z,45.30
2019-04-21T14:27:14.394Z,46.40
2019-04-21T14:29:45.830Z,46.30
2019-04-21T14:32:16.112Z,45.90
2019-04-21T14:34:48.826Z,46.50
2019-04-21T14:37:17.712Z,45.50
2019-04-21T14:39:55.904Z,45.70
2019-04-21T14:42:20.160Z,45.30
2019-04-21T14:44:51.195Z,45.50
2019-04-21T14:47:38.003Z,45.40
2019-04-21T14:50:20.237Z,44.70
2019-04-21T14:52:52.807Z,45.30
2019-04-21T14:55:24.915Z,44.80
2019-04-21T14:57:54.932Z,45.20
2019-04-21T15:00:29.311Z,44.40
2019-04-21T15:02:59.010Z,44.40
2019-04-21T15:05:29.377Z,44.20
2019-04-21T15:07:59.383Z,43.90
2019-04-21T15:10:32.165Z,43.60
2019-04-21T15:13:01.637Z,43.50
2019-04-21T15:15:31.840Z,44.80
2019-04-21T15:18:01.916Z,46.20
2019-04-21T15:20:31.780Z,47.20
2019-04-21T15:23:02.114Z,47.40
2019-04-21T15:25:32.338Z,47.70
2019-04-21T15:28:03.189Z,48.20
2019-04-21T15:30:34.403Z,47.90
2019-04-21T15:33:04.532Z,47.20
2019-04-21T15:35:35.275Z,47.70
2019-04-21T15:38:05.921Z,48.40
2019-04-21T15:40:44.630Z,48.60
2019-04-21T15:43:08.394Z,48.40
2019-04-21T15:45:39.019Z,47.90
2019-04-21T15:48:09.883Z,49.00
2019-04-21T15:50:41.839Z,48.50
2019-04-21T15:53:14.010Z,48.40
2019-04-21T15:55:52.846Z,48.80
2019-04-21T15:58:34.698Z,48.60
2019-04-21T16:01:16.522Z,48.70
2019-04-21T16:03:46.951Z,48.80
2019-04-21T16:06:17.345Z,48.80
2019-04-21T16:08:50.690Z,49.00
2019-04-21T16:11:19.826Z,49.00
2019-04-21T16:13:49.882Z,49.00
2019-04-21T16:16:20.209Z,49.60
2019-04-21T16:18:50.229Z,50.10
2019-04-21T16:21:19.971Z,50.70
2019-04-21T16:23:50.735Z,50.10
2019-04-21T16:26:22.258Z,50.10
2019-04-21T16:28:53.195Z,50.60
2019-04-21T16:31:24.479Z,50.90
2019-04-21T16:33:54.782Z,50.50
2019-04-21T16:36:25.482Z,50.70
2019-04-21T16:38:55.672Z,50.80
2019-04-21T16:41:26.503Z,50.50
2019-04-21T16:43:56.424Z,51.10
2019-04-21T16:46:27.394Z,50.90
2019-04-21T16:48:57.801Z,51.00
2019-04-21T16:51:28.479Z,51.70
2019-04-21T16:54:02.386Z,51.50
2019-04-21T16:56:37.443Z,52.20
2019-04-21T16:59:10.422Z,51.20
2019-04-21T17:01:40.716Z,51.90
2019-04-21T17:04:10.858Z,51.20
2019-04-21T17:06:40.943Z,51.40
2019-04-21T17:09:12.552Z,54.80
2019-04-21T17:11:44.643Z,52.90
2019-04-21T17:14:34.620Z,52.70
2019-04-21T17:17:09.976Z,52.20
2019-04-21T17:19:25.066Z,52.20
2019-04-21T17:21:49.768Z,53.10
2019-04-21T17:24:20.179Z,52.90
2019-04-21T17:26:51.402Z,53.10
2019-04-21T17:29:21.196Z,53.00
2019-04-21T17:31:50.993Z,52.80
2019-04-21T17:34:24.912Z,53.30
2019-04-21T17:36:53.042Z,53.80
2019-04-21T17:39:23.122Z,53.70
2019-04-21T17:42:05.299Z,53.80
2019-04-21T17:44:25.670Z,54.30
2019-04-21T17:47:01.421Z,53.80
2019-04-21T17:49:28.701Z,53.70
2019-04-21T17:52:03.949Z,53.40
2019-04-21T17:54:41.283Z,53.70
2019-04-21T17:57:30.499Z,53.90
2019-04-21T18:00:04.226Z,53.50
2019-04-21T18:02:36.989Z,53.50
2019-04-21T18:05:04.163Z,53.80
2019-04-21T18:07:46.779Z,53.80
2019-04-21T18:10:07.643Z,54.10
2019-04-21T18:12:33.634Z,54.50
2019-04-21T18:15:00.200Z,54.30
2019-04-21T18:17:22.749Z,53.90
2019-04-21T18:19:55.202Z,54.20
2019-04-21T18:22:34.508Z,53.80
2019-04-21T18:25:07.969Z,54.40
2019-04-21T18:27:34.489Z,54.10
2019-04-21T18:30:18.215Z,53.90
2019-04-21T18:32:48.259Z,54.30
2019-04-21T18:35:22.715Z,54.10
2019-04-21T18:38:04.454Z,54.20
2019-04-21T18:40:33.012Z,54.30
2019-04-21T18:43:37.867Z,54.30
2019-04-21T18:46:14.989Z,54.10
2019-04-21T18:48:36.397Z,54.80
2019-04-21T18:51:06.370Z,54.30
2019-04-21T18:53:58.014Z,54.70
2019-04-21T18:56:17.681Z,54.50
2019-04-21T18:58:46.678Z,54.90
2019-04-21T19:01:22.703Z,55.10
2019-04-21T19:03:51.186Z,55.00
2019-04-21T19:06:32.530Z,55.10
2019-04-21T19:09:10.296Z,55.20
2019-04-21T19:11:42.527Z,55.50
2019-04-21T19:14:29.029Z,55.50
2019-04-21T19:16:53.991Z,55.50
2019-04-21T19:21:57.705Z,55.90
2019-04-21T19:24:29.108Z,56.00
2019-04-21T19:26:58.852Z,56.10
2019-04-21T19:29:29.439Z,56.20
2019-04-21T19:32:03.983Z,56.40
2019-04-21T19:34:22.418Z,56.40
2019-04-21T19:36:52.097Z,56.60
2019-04-21T19:39:37.728Z,56.70
2019-04-21T19:42:00.559Z,56.80
2019-04-21T19:44:37.909Z,56.70
2019-04-21T19:47:10.798Z,57.20
2019-04-21T19:49:48.134Z,56.80
2019-04-21T19:52:03.736Z,56.80
2019-04-21T19:54:34.188Z,56.80
2019-04-21T19:57:00.831Z,56.80
2019-04-21T19:59:39.633Z,57.20
2019-04-21T20:02:06.739Z,56.80
2019-04-21T20:04:40.742Z,56.80
2019-04-21T20:07:23.377Z,56.70
2019-04-21T20:09:56.595Z,57.00
2019-04-21T20:12:35.498Z,56.80
2019-04-21T20:15:04.857Z,56.80
2019-04-21T20:17:34.786Z,56.70
2019-04-21T20:19:45.434Z,56.70
2019-04-21T20:22:16.752Z,56.80
2019-04-21T20:24:53.983Z,57.20
2019-04-21T20:27:31.110Z,57.20
2019-04-21T20:30:10.816Z,57.30
2019-04-21T20:32:39.345Z,57.30
2019-04-21T20:35:18.262Z,57.20
2019-04-21T20:37:43.788Z,57.40
2019-04-21T20:40:02.274Z,57.30
2019-04-21T20:42:42.751Z,57.40
2019-04-21T20:45:32.008Z,57.50
2019-04-21T20:47:37.701Z,57.60
2019-04-21T20:50:16.140Z,57.50
2019-04-21T20:52:53.827Z,57.50
2019-04-21T20:55:16.576Z,57.80
2019-04-21T20:57:46.471Z,57.50
2019-04-21T21:00:32.238Z,57.80
2019-04-21T21:03:00.927Z,57.70
2019-04-21T21:05:27.712Z,57.70
2019-04-21T21:08:03.592Z,57.70
2019-04-21T21:10:34.725Z,57.80
2019-04-21T21:13:14.239Z,58.00
2019-04-21T21:15:36.055Z,58.00
2019-04-21T21:18:16.081Z,58.30
2019-04-21T21:20:43.118Z,58.40
2019-04-21T21:23:07.530Z,58.60
2019-04-21T21:25:50.761Z,58.70
2019-04-21T21:28:07.541Z,58.80
2019-04-21T21:30:41.751Z,59.00
2019-04-21T21:33:21.672Z,59.20
2019-04-21T21:35:43.766Z,59.40
2019-04-21T21:38:26.575Z,59.60
2019-04-21T21:40:49.650Z,59.80
2019-04-21T21:43:16.603Z,59.80
2019-04-21T21:45:48.824Z,60.10
2019-04-21T21:48:27.337Z,60.40
2019-04-21T21:50:54.257Z,60.50
2019-04-21T21:53:19.861Z,60.80
2019-04-21T21:55:46.841Z,60.70
2019-04-21T21:58:25.327Z,61.00
2019-04-21T22:00:56.654Z,61.30
2019-04-21T22:03:30.599Z,61.70
2019-04-21T22:06:03.526Z,61.70
2019-04-21T22:08:24.885Z,62.00
2019-04-21T22:10:55.013Z,62.20
2019-04-21T22:13:32.732Z,62.10
2019-04-21T22:16:02.893Z,62.60
2019-04-21T22:18:43.120Z,62.90
2019-04-21T22:21:10.066Z,63.00
2019-04-21T22:23:42.669Z,63.10
2019-04-21T22:26:03.122Z,63.60
2019-04-21T22:28:33.764Z,64.70
2019-04-21T22:31:05.578Z,64.10
2019-04-21T22:33:40.296Z,64.30
2019-04-21T22:36:23.301Z,64.50
2019-04-21T22:38:52.157Z,64.70
2019-04-21T22:41:22.075Z,65.00
2019-04-21T22:43:44.546Z,65.30
2019-04-21T22:46:15.365Z,65.40
2019-04-21T22:48:52.131Z,65.80
2019-04-21T22:51:23.981Z,66.50
2019-04-21T22:53:50.790Z,66.70
2019-04-21T22:56:25.575Z,67.10
2019-04-21T22:58:51.345Z,67.30
2019-04-21T23:01:28.586Z,67.80
2019-04-21T23:03:58.559Z,68.20
2019-04-21T23:06:27.336Z,68.30
2019-04-21T23:08:57.083Z,68.40
2019-04-21T23:11:27.958Z,68.80
2019-04-21T23:14:04.254Z,68.80
2019-04-21T23:16:35.559Z,69.50
2019-04-21T23:19:19.989Z,69.50
2019-04-21T23:21:55.397Z,69.50
2019-04-21T23:24:31.677Z,68.90
2019-04-21T23:26:48.632Z,69.80
2019-04-21T23:29:39.477Z,70.30
2019-04-21T23:31:57.763Z,70.80
2019-04-21T23:34:19.644Z,71.10
2019-04-21T23:36:53.031Z,71.30
2019-04-21T23:39:22.767Z,72.10
2019-04-21T23:41:51.080Z,73.00
2019-04-21T23:44:20.104Z,72.30
2019-04-21T23:46:54.927Z,72.90
2019-04-21T23:49:34.331Z,72.90
2019-04-21T23:51:59.308Z,72.90
2019-04-21T23:54:23.173Z,72.90
2019-04-21T23:56:53.864Z,73.30
2019-04-21T23:59:24.860Z,73.10
